createdAt,value
2018-01-22T00:02:05.565Z,11.30
2018-01-22T00:04:31.786Z,11.80
2018-01-22T00:06:58.099Z,11.88
2018-01-22T00:09:24.323Z,11.75
2018-01-22T00:11:50.514Z,13.05
2018-01-22T00:14:17.096Z,11.95
2018-01-22T00:16:43.331Z,12.50
2018-01-22T00:19:09.638Z,12.32
2018-01-22T00:21:35.875Z,12.20
2018-01-22T00:24:02.112Z,12.13
2018-01-22T00:26:28.356Z,10.82
2018-01-22T00:28:54.640Z,10.65
2018-01-22T00:31:20.832Z,10.68
2018-01-22T00:33:47.101Z,12.37
2018-01-22T00:36:13.322Z,10.65
2018-01-22T00:38:39.555Z,10.90
2018-01-22T00:41:05.775Z,10.55
2018-01-22T00:43:32.017Z,11.38
2018-01-22T00:45:58.246Z,11.65
2018-01-22T00:48:24.481Z,12.02
2018-01-22T00:50:50.696Z,10.93
2018-01-22T00:53:16.923Z,10.55
2018-01-22T00:55:43.102Z,10.35
2018-01-22T00:58:09.308Z,11.10
2018-01-22T01:00:35.566Z,10.25
2018-01-22T01:03:02.226Z,11.25
2018-01-22T01:05:28.473Z,10.48
2018-01-22T01:07:54.690Z,11.02
2018-01-22T01:10:20.950Z,10.15
2018-01-22T01:12:47.165Z,10.40
2018-01-22T01:15:13.385Z,10.63
2018-01-22T01:17:39.590Z,10.90
2018-01-22T01:20:06.179Z,11.65
2018-01-22T01:22:32.429Z,10.55
2018-01-22T01:24:58.642Z,10.88
2018-01-22T01:27:24.869Z,12.63
2018-01-22T01:29:51.110Z,11.27
2018-01-22T01:32:17.639Z,12.10
2018-01-22T01:34:43.830Z,11.40
2018-01-22T01:37:10.061Z,11.73
2018-01-22T01:39:36.307Z,11.77
2018-01-22T01:42:03.428Z,10.80
2018-01-22T01:44:29.687Z,11.15
2018-01-22T01:46:55.942Z,9.27
2018-01-22T01:49:22.187Z,8.10
2018-01-22T01:51:48.413Z,8.95
2018-01-22T01:54:14.671Z,7.95
2018-01-22T01:56:40.869Z,8.23
2018-01-22T01:59:07.082Z,7.20
2018-01-22T02:01:33.324Z,5.85
2018-01-22T02:03:59.591Z,4.75
2018-01-22T02:06:25.832Z,5.12
2018-01-22T02:08:52.064Z,5.07
2018-01-22T02:11:18.297Z,3.65
2018-01-22T02:13:44.517Z,3.62
2018-01-22T02:16:10.747Z,3.45
2018-01-22T02:18:36.970Z,3.70
2018-01-22T02:21:03.228Z,3.55
2018-01-22T02:23:29.992Z,3.50
2018-01-22T02:25:56.600Z,3.90
2018-01-22T02:28:22.815Z,3.47
2018-01-22T02:30:49.029Z,3.33
2018-01-22T02:33:15.272Z,3.25
2018-01-22T02:35:41.541Z,3.80
2018-01-22T02:38:07.781Z,4.10
2018-01-22T02:40:33.986Z,3.65
2018-01-22T02:43:00.201Z,3.80
2018-01-22T02:45:26.416Z,3.15
2018-01-22T02:47:52.661Z,2.90
2018-01-22T02:50:18.913Z,3.05
2018-01-22T02:52:45.208Z,3.92
2018-01-22T02:55:11.824Z,3.60
2018-01-22T02:57:38.048Z,3.60
2018-01-22T03:00:04.336Z,3.80
2018-01-22T03:02:30.938Z,3.58
2018-01-22T03:04:57.183Z,3.60
2018-01-22T03:07:23.407Z,3.53
2018-01-22T03:09:49.657Z,3.53
2018-01-22T03:12:16.252Z,4.30
2018-01-22T03:14:42.480Z,4.18
2018-01-22T03:17:08.890Z,3.50
2018-01-22T03:19:42.007Z,3.97
2018-01-22T03:22:08.269Z,4.78
2018-01-22T03:24:34.509Z,4.43
2018-01-22T03:27:00.720Z,3.60
2018-01-22T03:29:26.957Z,3.70
2018-01-22T03:31:53.180Z,4.00
2018-01-22T03:34:19.397Z,3.85
2018-01-22T03:36:46.185Z,4.10
2018-01-22T03:39:12.385Z,3.62
2018-01-22T03:41:38.995Z,4.15
2018-01-22T03:44:05.233Z,3.97
2018-01-22T03:46:31.477Z,4.37
2018-01-22T03:48:58.097Z,3.90
2018-01-22T03:51:24.350Z,3.72
2018-01-22T03:53:50.598Z,4.28
2018-01-22T03:56:16.803Z,3.25
2018-01-22T03:58:43.027Z,3.62
2018-01-22T04:01:09.624Z,3.60
2018-01-22T04:03:35.871Z,3.70
2018-01-22T04:06:02.061Z,3.00
2018-01-22T04:08:28.312Z,3.72
2018-01-22T04:10:54.543Z,3.97
2018-01-22T04:13:20.746Z,3.95
2018-01-22T04:15:46.978Z,3.55
2018-01-22T04:18:13.788Z,4.07
2018-01-22T04:20:40.029Z,4.00
2018-01-22T04:23:06.285Z,3.67
2018-01-22T04:25:32.531Z,3.62
2018-01-22T04:27:58.726Z,3.85
2018-01-22T04:30:24.991Z,3.35
2018-01-22T04:32:51.220Z,4.10
2018-01-22T04:35:17.883Z,3.78
2018-01-22T04:37:44.134Z,3.60
2018-01-22T04:40:10.355Z,3.80
2018-01-22T04:42:36.564Z,3.35
2018-01-22T04:45:02.796Z,3.70
2018-01-22T04:47:29.377Z,3.75
2018-01-22T04:49:55.654Z,3.70
2018-01-22T04:52:22.236Z,3.92
2018-01-22T04:54:48.468Z,3.67
2018-01-22T04:57:14.783Z,4.18
2018-01-22T04:59:41.023Z,4.40
2018-01-22T05:02:07.199Z,4.18
2018-01-22T05:04:33.820Z,3.53
2018-01-22T05:07:00.060Z,4.47
2018-01-22T05:09:26.665Z,4.10
2018-01-22T05:11:52.880Z,4.28
2018-01-22T05:14:19.096Z,3.85
2018-01-22T05:16:46.649Z,4.32
2018-01-22T05:19:12.895Z,4.80
2018-01-22T05:21:39.119Z,5.10
2018-01-22T05:24:05.377Z,4.87
2018-01-22T05:26:31.613Z,5.03
2018-01-22T05:28:57.834Z,4.78
2018-01-22T05:31:24.044Z,5.45
2018-01-22T05:33:50.268Z,6.22
2018-01-22T05:36:16.476Z,5.80
2018-01-22T05:38:42.748Z,5.80
2018-01-22T05:41:08.939Z,6.00
2018-01-22T05:43:35.172Z,5.90
2018-01-22T05:46:01.399Z,5.82
2018-01-22T05:48:27.623Z,5.70
2018-01-22T05:50:53.902Z,5.60
2018-01-22T05:53:20.768Z,5.50
2018-01-22T05:55:47.047Z,5.75
2018-01-22T05:58:13.266Z,5.93
2018-01-22T06:00:39.918Z,6.28
2018-01-22T06:03:06.108Z,6.10
2018-01-22T06:05:32.308Z,5.70
2018-01-22T06:07:58.565Z,6.68
2018-01-22T06:10:24.826Z,6.40
2018-01-22T06:12:51.107Z,7.35
2018-01-22T06:15:17.371Z,6.80
2018-01-22T06:17:43.661Z,6.45
2018-01-22T06:20:09.907Z,6.30
2018-01-22T06:22:36.204Z,7.62
2018-01-22T06:25:02.792Z,7.03
2018-01-22T06:27:29.014Z,6.80
2018-01-22T06:29:55.248Z,6.78
2018-01-22T06:32:21.432Z,7.30
2018-01-22T06:34:47.661Z,6.68
2018-01-22T06:37:13.865Z,7.22
2018-01-22T06:39:40.106Z,8.63
2018-01-22T06:42:06.341Z,7.90
2018-01-22T06:44:32.541Z,7.90
2018-01-22T06:46:59.064Z,7.85
2018-01-22T06:49:25.279Z,8.20
2018-01-22T06:51:52.544Z,9.15
2018-01-22T06:54:18.754Z,9.10
2018-01-22T06:56:45.007Z,7.68
2018-01-22T06:59:11.585Z,8.40
2018-01-22T07:01:37.790Z,8.05
2018-01-22T07:04:03.987Z,8.85
2018-01-22T07:06:30.173Z,7.90
2018-01-22T07:08:56.420Z,7.82
2018-01-22T07:11:22.625Z,7.82
2018-01-22T07:13:48.842Z,7.90
2018-01-22T07:16:15.416Z,9.50
2018-01-22T07:18:41.657Z,7.28
2018-01-22T07:21:07.901Z,8.77
2018-01-22T07:23:34.095Z,9.68
2018-01-22T07:26:00.343Z,10.90
2018-01-22T07:28:26.536Z,10.90
2018-01-22T07:30:52.764Z,10.38
2018-01-22T07:33:18.959Z,10.48
2018-01-22T07:35:45.171Z,10.73
2018-01-22T07:38:11.407Z,10.82
2018-01-22T07:40:37.637Z,9.90
2018-01-22T07:43:03.885Z,10.60
2018-01-22T07:45:30.073Z,9.98
2018-01-22T07:47:56.385Z,9.25
2018-01-22T07:50:22.610Z,9.27
2018-01-22T07:52:48.838Z,9.75
2018-01-22T07:55:15.067Z,8.85
2018-01-22T07:57:41.315Z,8.40
2018-01-22T08:00:08.672Z,8.48
2018-01-22T08:02:34.888Z,8.80
2018-01-22T08:05:01.121Z,9.25
2018-01-22T08:07:27.337Z,9.70
2018-01-22T08:09:53.545Z,8.52
2018-01-22T08:12:19.847Z,10.05
2018-01-22T08:14:46.059Z,10.48
2018-01-22T08:17:12.308Z,12.20
2018-01-22T08:19:38.522Z,15.82
2018-01-22T08:22:04.770Z,15.75
2018-01-22T08:24:31.019Z,15.80
2018-01-22T08:26:57.250Z,14.60
2018-01-22T08:29:23.461Z,15.38
2018-01-22T08:31:49.683Z,17.55
2018-01-22T08:34:15.910Z,21.10
2018-01-22T08:36:42.135Z,18.48
2018-01-22T08:39:08.373Z,18.60
2018-01-22T08:41:34.587Z,16.45
2018-01-22T08:44:00.824Z,19.90
2018-01-22T08:46:27.022Z,16.23
2018-01-22T08:48:53.227Z,17.75
2018-01-22T08:51:19.449Z,16.87
2018-01-22T08:53:45.786Z,15.57
2018-01-22T08:56:12.804Z,15.57
2018-01-22T08:58:39.060Z,15.35
2018-01-22T09:01:05.362Z,15.55
2018-01-22T09:03:31.693Z,13.70
2018-01-22T09:05:57.920Z,16.17
2018-01-22T09:08:24.159Z,15.45
2018-01-22T09:10:50.424Z,15.00
2018-01-22T09:13:16.667Z,8.90
2018-01-22T09:15:43.233Z,8.63
2018-01-22T09:18:09.512Z,8.77
2018-01-22T09:20:35.752Z,15.95
2018-01-22T09:23:02.382Z,91.50
2018-01-22T09:25:28.996Z,45.85
2018-01-22T09:27:55.231Z,56.30
2018-01-22T09:30:21.833Z,92.70
2018-01-22T09:32:48.057Z,41.92
2018-01-22T09:35:14.303Z,37.40
2018-01-22T09:37:40.514Z,34.40
2018-01-22T09:40:06.746Z,30.88
2018-01-22T09:42:32.991Z,24.58
2018-01-22T09:44:59.255Z,22.55
2018-01-22T09:47:25.893Z,21.77
2018-01-22T09:49:52.575Z,20.42
2018-01-22T09:52:18.787Z,20.77
2018-01-22T09:54:45.006Z,17.67
2018-01-22T09:57:11.590Z,15.57
2018-01-22T09:59:37.860Z,16.95
2018-01-22T10:02:04.452Z,13.95
2018-01-22T10:04:30.656Z,12.57
2018-01-22T10:06:56.897Z,11.18
2018-01-22T10:09:23.164Z,8.77
2018-01-22T10:11:49.851Z,8.80
2018-01-22T10:14:16.085Z,7.53
2018-01-22T10:16:42.455Z,7.87
2018-01-22T10:19:08.807Z,7.75
2018-01-22T10:21:35.171Z,7.87
2018-01-22T10:24:01.448Z,8.20
2018-01-22T10:26:28.551Z,8.20
2018-01-22T10:28:54.743Z,7.97
2018-01-22T10:31:21.325Z,8.18
2018-01-22T10:33:47.612Z,8.60
2018-01-22T10:36:13.870Z,8.00
2018-01-22T10:38:40.121Z,8.05
2018-01-22T10:41:06.341Z,8.50
2018-01-22T10:43:32.543Z,7.95
2018-01-22T10:45:58.806Z,7.55
2018-01-22T10:48:25.038Z,8.00
2018-01-22T10:50:51.385Z,8.57
2018-01-22T10:53:17.631Z,7.87
2018-01-22T10:55:43.869Z,7.97
2018-01-22T10:58:10.134Z,8.13
2018-01-22T11:00:36.425Z,8.80
2018-01-22T11:03:03.024Z,8.82
2018-01-22T11:05:29.318Z,8.18
2018-01-22T11:07:55.550Z,7.57
2018-01-22T11:10:21.773Z,7.55
2018-01-22T11:12:48.017Z,8.25
2018-01-22T11:15:14.261Z,8.65
2018-01-22T11:17:40.529Z,8.80
2018-01-22T11:20:06.748Z,9.27
2018-01-22T11:22:33.078Z,9.20
2018-01-22T11:24:59.309Z,13.40
2018-01-22T11:27:25.888Z,21.62
2018-01-22T11:29:52.198Z,16.30
2018-01-22T11:32:18.519Z,16.67
2018-01-22T11:34:45.125Z,23.15
2018-01-22T11:37:11.351Z,23.48
2018-01-22T11:39:37.597Z,25.15
2018-01-22T11:42:03.812Z,22.17
2018-01-22T11:44:30.027Z,17.12
2018-01-22T11:46:56.279Z,21.30
2018-01-22T11:49:22.507Z,23.17
2018-01-22T11:51:49.372Z,18.17
2018-01-22T11:54:15.610Z,14.50
2018-01-22T11:56:41.884Z,13.57
2018-01-22T11:59:08.464Z,12.52
2018-01-22T12:01:34.865Z,10.90
2018-01-22T12:04:01.130Z,7.53
2018-01-22T12:06:27.370Z,9.15
2018-01-22T12:08:53.613Z,12.90
2018-01-22T12:11:19.801Z,14.48
2018-01-22T12:13:46.061Z,11.80
2018-01-22T12:16:12.284Z,9.80
2018-01-22T12:18:38.543Z,11.93
2018-01-22T12:21:04.843Z,12.75
2018-01-22T12:23:31.226Z,12.80
2018-01-22T12:25:58.364Z,13.40
2018-01-22T12:28:24.657Z,11.57
2018-01-22T12:30:50.921Z,5.00
2018-01-22T12:33:17.135Z,3.92
2018-01-22T12:35:43.395Z,3.80
2018-01-22T12:38:09.616Z,4.15
2018-01-22T12:40:35.876Z,3.67
2018-01-22T12:43:02.077Z,4.65
2018-01-22T12:45:28.300Z,3.00
2018-01-22T12:47:54.562Z,4.30
2018-01-22T12:50:20.824Z,3.45
2018-01-22T12:52:47.041Z,3.60
2018-01-22T12:55:13.259Z,3.90
2018-01-22T12:57:39.612Z,5.12
2018-01-22T13:00:05.877Z,5.25
2018-01-22T13:02:32.082Z,7.35
2018-01-22T13:04:58.293Z,7.93
2018-01-22T13:07:24.509Z,7.03
2018-01-22T13:09:50.756Z,4.07
2018-01-22T13:12:17.043Z,2.50
2018-01-22T13:14:44.878Z,2.55
2018-01-22T13:17:11.158Z,2.60
2018-01-22T13:19:37.418Z,2.60
2018-01-22T13:22:03.635Z,2.90
2018-01-22T13:24:30.571Z,4.18
2018-01-22T13:26:56.932Z,4.00
2018-01-22T13:29:23.197Z,7.60
2018-01-22T13:31:49.796Z,3.62
2018-01-22T13:34:16.070Z,4.90
2018-01-22T13:36:42.304Z,9.02
2018-01-22T13:39:08.541Z,8.23
2018-01-22T13:41:34.806Z,7.60
2018-01-22T13:44:01.753Z,5.47
2018-01-22T13:46:28.030Z,6.70
2018-01-22T13:48:54.297Z,6.05
2018-01-22T13:51:20.503Z,6.10
2018-01-22T13:53:46.778Z,5.43
2018-01-22T13:56:13.001Z,5.18
2018-01-22T13:58:39.242Z,3.12
2018-01-22T14:01:05.495Z,3.25
2018-01-22T14:03:31.740Z,4.80
2018-01-22T14:05:57.989Z,4.20
2018-01-22T14:08:24.240Z,5.53
2018-01-22T14:10:50.475Z,11.45
2018-01-22T14:13:16.770Z,8.70
2018-01-22T14:15:43.255Z,8.20
2018-01-22T14:18:09.491Z,7.40
2018-01-22T14:20:36.138Z,5.87
2018-01-22T14:23:02.448Z,5.40
2018-01-22T14:25:29.037Z,5.22
2018-01-22T14:27:55.290Z,5.40
2018-01-22T14:30:21.600Z,6.40
2018-01-22T14:32:47.816Z,6.28
2018-01-22T14:35:14.050Z,6.80
2018-01-22T14:37:40.382Z,9.63
2018-01-22T14:40:06.629Z,10.10
2018-01-22T14:42:32.885Z,9.85
2018-01-22T14:44:59.533Z,10.90
2018-01-22T14:47:26.233Z,12.30
2018-01-22T14:49:52.580Z,14.63
2018-01-22T14:52:18.903Z,11.73
2018-01-22T14:54:45.117Z,11.15
2018-01-22T14:57:11.397Z,14.20
2018-01-22T14:59:38.045Z,14.87
2018-01-22T15:02:04.314Z,19.12
2018-01-22T15:04:30.533Z,14.77
2018-01-22T15:06:56.769Z,15.15
2018-01-22T15:09:22.999Z,13.00
2018-01-22T15:11:49.379Z,14.45
2018-01-22T15:14:16.005Z,18.98
2018-01-22T15:16:42.613Z,15.90
2018-01-22T15:19:08.868Z,20.80
2018-01-22T15:21:35.464Z,25.65
2018-01-22T15:24:01.744Z,42.88
2018-01-22T15:26:28.342Z,33.83
2018-01-22T15:28:54.600Z,33.38
2018-01-22T15:31:20.830Z,18.10
2018-01-22T15:33:47.467Z,17.60
2018-01-22T15:36:14.138Z,27.20
2018-01-22T15:38:40.376Z,23.67
2018-01-22T15:41:06.676Z,17.50
2018-01-22T15:43:32.911Z,15.65
2018-01-22T15:45:59.137Z,19.90
2018-01-22T15:48:25.394Z,16.30
2018-01-22T15:50:51.654Z,16.77
2018-01-22T15:53:17.919Z,26.37
2018-01-22T15:55:44.535Z,20.48
2018-01-22T15:58:10.762Z,24.15
2018-01-22T16:00:37.391Z,26.70
2018-01-22T16:03:03.694Z,26.67
2018-01-22T16:05:29.896Z,25.75
2018-01-22T16:07:56.173Z,33.22
2018-01-22T16:10:22.424Z,28.27
2018-01-22T16:12:48.675Z,27.50
2018-01-22T16:15:15.260Z,64.62
2018-01-22T16:17:42.503Z,38.45
2018-01-22T16:20:08.740Z,55.63
2018-01-22T16:22:35.621Z,32.08
2018-01-22T16:25:03.177Z,57.72
2018-01-22T16:27:29.791Z,40.15
2018-01-22T16:29:56.014Z,32.95
2018-01-22T16:32:22.237Z,30.67
2018-01-22T16:34:48.524Z,41.25
2018-01-22T16:37:14.728Z,41.53
2018-01-22T16:39:41.346Z,40.72
2018-01-22T16:42:07.604Z,35.17
2018-01-22T16:44:33.900Z,34.40
2018-01-22T16:47:06.163Z,27.27
2018-01-22T16:49:32.625Z,34.13
2018-01-22T16:51:59.348Z,31.58
2018-01-22T16:54:25.624Z,39.67
2018-01-22T16:56:51.905Z,34.95
2018-01-22T16:59:18.113Z,37.00
2018-01-22T17:01:44.380Z,35.80
2018-01-22T17:04:11.054Z,37.97
2018-01-22T17:06:37.276Z,43.33
2018-01-22T17:09:03.612Z,34.50
2018-01-22T17:11:29.865Z,30.85
2018-01-22T17:13:56.112Z,29.90
2018-01-22T17:16:22.337Z,42.80
2018-01-22T17:18:48.585Z,38.63
2018-01-22T17:21:15.189Z,39.80
2018-01-22T17:23:41.472Z,30.35
2018-01-22T17:26:07.735Z,37.67
2018-01-22T17:28:34.018Z,40.60
2018-01-22T17:31:00.310Z,37.03
2018-01-22T17:33:26.547Z,36.03
2018-01-22T17:35:52.803Z,39.83
2018-01-22T17:38:19.422Z,47.10
2018-01-22T17:40:46.032Z,52.80
2018-01-22T17:43:12.777Z,50.55
2018-01-22T17:45:38.992Z,49.50
2018-01-22T17:48:05.235Z,44.92
2018-01-22T17:50:31.470Z,44.03
2018-01-22T17:52:58.380Z,30.75
2018-01-22T17:55:24.596Z,16.67
2018-01-22T17:57:50.961Z,12.77
2018-01-22T18:00:17.237Z,10.95
2018-01-22T18:02:43.539Z,12.85
2018-01-22T18:05:09.798Z,16.45
2018-01-22T18:07:36.043Z,17.27
2018-01-22T18:10:02.342Z,17.65
2018-01-22T18:12:28.980Z,17.33
2018-01-22T18:14:55.610Z,17.17
2018-01-22T18:17:22.821Z,20.62
2018-01-22T18:19:49.057Z,17.65
2018-01-22T18:22:16.070Z,18.40
2018-01-22T18:24:42.341Z,14.77
2018-01-22T18:27:08.660Z,13.20
2018-01-22T18:29:34.884Z,13.05
2018-01-22T18:32:01.165Z,14.70
2018-01-22T18:34:27.774Z,15.77
2018-01-22T18:36:54.101Z,14.50
2018-01-22T18:39:20.423Z,14.30
2018-01-22T18:41:46.683Z,13.18
2018-01-22T18:44:13.290Z,13.55
2018-01-22T18:46:39.568Z,13.35
2018-01-22T18:49:05.808Z,10.10
2018-01-22T18:51:32.077Z,10.40
2018-01-22T18:53:58.332Z,9.20
2018-01-22T18:56:24.635Z,13.05
2018-01-22T18:58:50.860Z,13.45
2018-01-22T19:01:17.111Z,13.20
2018-01-22T19:03:43.799Z,12.37
2018-01-22T19:06:10.048Z,14.80
2018-01-22T19:08:37.087Z,12.80
2018-01-22T19:11:03.415Z,13.10
2018-01-22T19:13:29.802Z,13.62
2018-01-22T19:15:56.054Z,15.20
2018-01-22T19:18:22.361Z,15.25
2018-01-22T19:20:48.961Z,14.77
2018-01-22T19:23:15.534Z,17.58
2018-01-22T19:25:41.902Z,17.17
2018-01-22T19:28:08.194Z,20.80
2018-01-22T19:30:34.841Z,20.10
2018-01-22T19:33:01.118Z,18.87
2018-01-22T19:35:27.374Z,19.50
2018-01-22T19:37:54.037Z,25.65
2018-01-22T19:40:20.379Z,21.30
2018-01-22T19:42:47.510Z,21.40
2018-01-22T19:45:14.129Z,21.48
2018-01-22T19:47:40.767Z,21.20
2018-01-22T19:50:07.401Z,22.30
2018-01-22T19:52:33.823Z,22.25
2018-01-22T19:55:00.132Z,17.30
2018-01-22T19:57:26.816Z,14.02
2018-01-22T19:59:53.108Z,19.58
2018-01-22T20:02:20.039Z,15.93
2018-01-22T20:04:46.366Z,17.05
2018-01-22T20:07:12.820Z,16.75
2018-01-22T20:09:39.188Z,12.77
2018-01-22T20:12:05.507Z,12.43
2018-01-22T20:14:32.190Z,12.40
2018-01-22T20:16:58.478Z,14.50
2018-01-22T20:19:25.149Z,19.02
2018-01-22T20:21:51.442Z,19.80
2018-01-22T20:24:17.761Z,20.02
2018-01-22T20:26:44.084Z,18.12
2018-01-22T20:29:10.394Z,20.67
2018-01-22T20:31:36.756Z,20.88
2018-01-22T20:34:03.082Z,21.12
2018-01-22T20:36:29.355Z,27.40
2018-01-22T20:38:55.589Z,28.30
2018-01-22T20:41:21.837Z,28.35
2018-01-22T20:43:48.157Z,26.15
2018-01-22T20:46:14.510Z,24.17
2018-01-22T20:48:40.858Z,17.92
2018-01-22T20:51:07.107Z,19.37
2018-01-22T20:53:33.447Z,21.45
2018-01-22T20:56:00.104Z,18.40
2018-01-22T20:58:26.519Z,25.23
2018-01-22T21:00:52.767Z,34.47
2018-01-22T21:03:18.998Z,33.22
2018-01-22T21:05:45.311Z,31.35
2018-01-22T21:08:11.565Z,22.80
2018-01-22T21:10:37.855Z,20.15
2018-01-22T21:13:04.475Z,20.17
2018-01-22T21:15:31.136Z,21.60
2018-01-22T21:17:57.783Z,20.40
2018-01-22T21:20:24.046Z,30.65
2018-01-22T21:22:50.387Z,25.67
2018-01-22T21:25:16.737Z,30.70
2018-01-22T21:27:42.995Z,35.65
2018-01-22T21:30:12.104Z,38.08
2018-01-22T21:32:38.370Z,29.80
2018-01-22T21:35:04.615Z,30.73
2018-01-22T21:37:30.927Z,27.45
2018-01-22T21:39:57.172Z,23.02
2018-01-22T21:42:24.605Z,23.48
2018-01-22T21:44:50.873Z,181.73
2018-01-22T21:47:17.116Z,23.33
2018-01-22T21:49:43.720Z,43.42
2018-01-22T21:52:09.953Z,213.62
2018-01-22T21:54:36.774Z,31.48
2018-01-22T21:57:03.049Z,169.73
2018-01-22T21:59:29.299Z,130.93
2018-01-22T22:01:55.542Z,102.40
2018-01-22T22:04:21.798Z,130.23
2018-01-22T22:06:48.583Z,76.10
2018-01-22T22:09:14.794Z,222.15
2018-01-22T22:11:41.043Z,155.02
2018-01-22T22:14:07.282Z,9.25
2018-01-22T22:16:33.497Z,8.55
2018-01-22T22:18:59.793Z,7.60
2018-01-22T22:21:26.034Z,7.82
2018-01-22T22:23:52.682Z,7.80
2018-01-22T22:26:19.297Z,8.10
2018-01-22T22:28:45.581Z,8.63
2018-01-22T22:31:12.828Z,8.45
2018-01-22T22:33:39.097Z,8.32
2018-01-22T22:36:05.335Z,155.55
2018-01-22T22:38:31.545Z,177.62
2018-01-22T22:40:58.772Z,139.57
2018-01-22T22:43:25.001Z,15.45
2018-01-22T22:45:51.269Z,22.23
2018-01-22T22:48:17.534Z,164.13
2018-01-22T22:50:43.780Z,245.10
2018-01-22T22:53:10.035Z,75.35
2018-01-22T22:55:36.248Z,257.75
2018-01-22T22:58:02.577Z,204.57
2018-01-22T23:00:28.814Z,252.35
2018-01-22T23:02:55.030Z,41.45
2018-01-22T23:05:21.288Z,177.60
2018-01-22T23:07:47.552Z,226.80
2018-01-22T23:10:13.805Z,152.23
2018-01-22T23:12:40.048Z,95.18
2018-01-22T23:15:06.312Z,31.30
2018-01-22T23:17:32.509Z,37.35
2018-01-22T23:19:58.731Z,32.00
2018-01-22T23:22:24.953Z,22.60
2018-01-22T23:24:51.186Z,22.48
2018-01-22T23:27:17.444Z,20.77
2018-01-22T23:29:43.679Z,37.15
2018-01-22T23:32:09.876Z,26.55
2018-01-22T23:34:36.105Z,28.77
2018-01-22T23:37:02.324Z,32.90
2018-01-22T23:39:28.540Z,32.40
2018-01-22T23:41:54.810Z,30.90
2018-01-22T23:44:21.436Z,29.42
2018-01-22T23:46:47.676Z,30.00
2018-01-22T23:49:13.897Z,40.30
2018-01-22T23:51:40.213Z,21.45
2018-01-22T23:54:06.571Z,28.17
2018-01-22T23:56:32.872Z,24.77
2018-01-22T23:58:59.065Z,27.45
